Time;durP1;ratioP1;P1;durP2;ratioP2;P2;SDS_P1;SDS_P2;PMS_P1;PMS_P2;Temp;Humidity;BMP_temperature;BMP_pressure;BME280_temperature;BME280_humidity;BME280_pressure;Samples;Min_cycle;Max_cycle;Signal;HPM_P1;HPM_P2
2023/06/05 00:00:07;;;;;;;3.07;2.00;;;;;;;19.36;56.74;98164.31;4204527;28;20744;-75
2023/06/05 00:02:20;;;;;;;2.73;1.90;;;;;;;19.36;55.99;98164.31;4197290;28;20612;-75
2023/06/05 00:04:24;;;;;;;5.43;1.97;;;;;;;19.37;56.58;98170.25;4202777;28;20662;-75
2023/06/05 00:06:27;;;;;;;2.60;2.00;;;;;;;19.35;57.17;98166.13;4204099;28;20673;-75
2023/06/05 00:08:30;;;;;;;3.30;2.00;;;;;;;19.28;57.68;98165.09;4204920;28;20627;-75
2023/06/05 00:10:33;;;;;;;3.37;2.07;;;;;;;19.24;57.71;98160.25;4196920;28;20631;-74
2023/06/05 00:12:37;;;;;;;2.53;2.10;;;;;;;19.16;58.31;98170.78;4198629;28;20646;-75
2023/06/05 00:14:40;;;;;;;3.60;2.33;;;;;;;19.11;57.95;98168.63;4200022;28;20627;-75
2023/06/05 00:16:43;;;;;;;4.53;2.77;;;;;;;19.06;58.41;98170.91;4199835;28;20639;-74
2023/06/05 00:18:48;;;;;;;3.03;2.30;;;;;;;18.95;58.80;98168.47;4201518;28;20623;-75
2023/06/05 00:20:51;;;;;;;2.40;2.20;;;;;;;18.88;59.29;98171.06;4199642;28;20669;-75
2023/06/05 00:22:55;;;;;;;4.47;2.90;;;;;;;18.80;59.41;98166.53;4197481;28;20689;-74
2023/06/05 00:24:58;;;;;;;3.63;2.80;;;;;;;18.75;59.66;98163.53;4205143;28;20639;-75
2023/06/05 00:27:01;;;;;;;3.00;2.20;;;;;;;18.66;60.04;98167.09;4200802;28;20648;-74
2023/06/05 00:29:04;;;;;;;3.60;2.47;;;;;;;18.58;60.50;98166.16;4205066;28;20632;-75
2023/06/05 00:31:08;;;;;;;4.60;2.60;;;;;;;18.52;60.87;98161.50;4201112;28;20704;-74
2023/06/05 00:33:12;;;;;;;3.47;2.40;;;;;;;18.48;60.47;98168.09;4201130;28;20849;-74
2023/06/05 00:35:16;;;;;;;5.00;2.53;;;;;;;18.42;61.46;98164.22;4199958;28;20632;-74
2023/06/05 00:37:20;;;;;;;5.70;2.63;;;;;;;18.39;61.20;98168.13;4184068;28;20628;-75
2023/06/05 00:39:25;;;;;;;4.20;2.37;;;;;;;18.37;61.06;98164.81;4212457;28;20657;-75
2023/06/05 00:41:28;;;;;;;3.10;2.43;;;;;;;18.36;61.46;98169.28;4200956;28;21273;-75
2023/06/05 00:43:31;;;;;;;3.93;2.50;;;;;;;18.36;61.34;98165.78;4192981;28;20649;-74
2023/06/05 00:45:34;;;;;;;3.90;2.60;;;;;;;18.33;62.15;98166.94;4199384;28;20639;-75
2023/06/05 00:47:38;;;;;;;3.93;2.67;;;;;;;18.28;62.44;98160.44;4199092;28;21222;-75
2023/06/05 00:49:41;;;;;;;2.97;2.30;;;;;;;18.21;62.16;98162.84;4205496;28;21170;-74
2023/06/05 00:51:46;;;;;;;2.80;2.50;;;;;;;18.17;62.84;98158.03;4200852;28;20640;-75
2023/06/05 00:53:50;;;;;;;3.77;2.40;;;;;;;18.16;62.94;98167.75;4201828;28;21101;-75
2023/06/05 00:55:54;;;;;;;3.50;2.50;;;;;;;18.13;63.40;98169.84;4190008;28;20634;-75
2023/06/05 00:57:58;;;;;;;3.30;2.57;;;;;;;18.04;63.09;98162.78;4187296;28;20695;-75
2023/06/05 01:00:06;;;;;;;3.00;2.40;;;;;;;17.96;63.00;98165.34;4204720;28;20666;-75
2023/06/05 01:02:10;;;;;;;3.77;2.87;;;;;;;17.90;63.96;98165.94;4205401;28;20645;-75
2023/06/05 01:04:13;;;;;;;5.83;3.03;;;;;;;17.82;63.27;98163.22;4201905;28;20631;-75
2023/06/05 01:06:17;;;;;;;4.60;2.70;;;;;;;17.79;64.94;98166.16;4197828;28;20656;-74
2023/06/05 01:08:25;;;;;;;3.60;2.60;;;;;;;17.74;64.51;98171.03;4196271;28;20634;-75
2023/06/05 01:10:28;;;;;;;3.60;2.33;;;;;;;17.69;63.74;98164.53;4194379;28;20635;-75
2023/06/05 01:12:37;;;;;;;3.80;2.70;;;;;;;17.71;64.05;98171.34;4182258;28;20636;-75
2023/06/05 01:14:45;;;;;;;3.17;2.70;;;;;;;17.73;64.48;98166.72;4185605;28;20687;-75
2023/06/05 01:16:53;;;;;;;4.37;2.57;;;;;;;17.72;63.84;98170.34;4199771;28;20973;-75
2023/06/05 01:19:01;;;;;;;3.23;2.70;;;;;;;17.68;64.23;98168.13;4196536;28;20660;-74
2023/06/05 01:21:05;;;;;;;5.80;3.40;;;;;;;17.67;64.74;98169.97;4199751;28;20642;-75
2023/06/05 01:23:11;;;;;;;3.63;2.70;;;;;;;17.68;63.32;98163.72;4202944;28;20631;-75
2023/06/05 01:25:18;;;;;;;3.60;2.30;;;;;;;17.68;63.05;98171.63;4205223;28;20627;-75
2023/06/05 01:27:26;;;;;;;2.87;2.20;;;;;;;17.67;63.42;98159.41;4198977;28;21206;-75
2023/06/05 01:29:33;;;;;;;3.27;2.60;;;;;;;17.61;64.21;98169.72;4192336;28;20652;-75
2023/06/05 01:31:37;;;;;;;3.43;2.20;;;;;;;17.58;64.01;98167.38;4196824;28;20644;-75
2023/06/05 01:33:44;;;;;;;4.60;2.70;;;;;;;17.50;63.90;98170.75;4200367;28;21226;-74
2023/06/05 01:35:51;;;;;;;5.23;2.80;;;;;;;17.47;65.10;98165.75;4181865;28;20623;-75
2023/06/05 01:37:55;;;;;;;3.80;2.60;;;;;;;17.45;64.46;98171.31;4185864;28;20648;-74
2023/06/05 01:40:00;;;;;;;3.67;2.50;;;;;;;17.43;64.36;98168.00;4176123;28;21124;-74
2023/06/05 01:42:05;;;;;;;4.63;2.77;;;;;;;17.41;64.92;98173.41;4189091;28;20680;-75
2023/06/05 01:44:09;;;;;;;3.70;2.33;;;;;;;17.37;65.17;98163.31;4179400;28;20720;-75
2023/06/05 01:46:12;;;;;;;4.03;2.67;;;;;;;17.30;66.37;98170.94;4192052;28;20643;-75
2023/06/05 01:48:16;;;;;;;5.20;3.00;;;;;;;17.23;65.92;98167.22;4174221;28;21047;-75
2023/06/05 01:50:19;;;;;;;3.97;2.90;;;;;;;17.20;66.64;98175.44;4179091;28;20643;-75
2023/06/05 01:52:23;;;;;;;4.23;3.00;;;;;;;17.16;65.93;98168.72;4194837;28;21048;-75
2023/06/05 01:54:26;;;;;;;4.40;3.13;;;;;;;17.08;67.41;98168.63;4195755;28;20741;-74
2023/06/05 01:56:32;;;;;;;5.13;2.90;;;;;;;17.04;65.68;98169.88;4185379;28;20641;-75
2023/06/05 01:58:36;;;;;;;3.70;2.37;;;;;;;17.01;66.36;98162.25;4186560;28;20650;-75
2023/06/05 02:00:39;;;;;;;3.30;2.60;;;;;;;16.98;66.37;98166.16;4193132;28;20719;-75
2023/06/05 02:02:43;;;;;;;3.93;2.73;;;;;;;16.98;64.89;98168.81;4190627;28;20635;-75
2023/06/05 02:04:47;;;;;;;3.97;2.80;;;;;;;16.98;66.53;98166.97;4175203;28;20626;-75
2023/06/05 02:06:52;;;;;;;3.40;2.70;;;;;;;16.89;66.00;98162.56;4177360;28;20672;-75
2023/06/05 02:08:56;;;;;;;3.10;2.63;;;;;;;16.85;67.24;98155.91;4180315;28;20629;-75
2023/06/05 02:11:02;;;;;;;4.03;2.97;;;;;;;16.82;66.33;98160.63;4190229;28;20777;-75
2023/06/05 02:13:06;;;;;;;5.10;3.30;;;;;;;16.73;66.17;98157.06;4188757;28;20675;-74
2023/06/05 02:15:12;;;;;;;3.80;2.77;;;;;;;16.68;66.39;98161.06;4192579;28;20669;-75
2023/06/05 02:17:16;;;;;;;3.57;2.87;;;;;;;16.69;67.01;98154.84;4185493;28;21038;-75
2023/06/05 02:19:19;;;;;;;5.10;3.00;;;;;;;16.69;66.04;98154.84;4194986;28;20631;-75
2023/06/05 02:21:22;;;;;;;4.47;3.20;;;;;;;16.68;66.18;98155.81;4194607;28;20638;-75
2023/06/05 02:23:26;;;;;;;4.37;2.83;;;;;;;16.57;66.17;98146.25;4191889;28;20646;-75
2023/06/05 02:25:29;;;;;;;3.77;2.87;;;;;;;16.50;67.08;98146.94;4193999;28;21020;-75
2023/06/05 02:27:33;;;;;;;4.17;3.07;;;;;;;16.43;69.10;98152.91;4189926;28;20634;-75
2023/06/05 02:29:37;;;;;;;4.13;2.80;;;;;;;16.37;67.29;98153.47;4179609;28;20644;-75
2023/06/05 02:31:41;;;;;;;4.43;3.03;;;;;;;16.33;69.14;98158.19;4176518;28;21275;-75
2023/06/05 02:33:44;;;;;;;6.30;3.27;;;;;;;16.35;69.27;98156.22;4190114;28;21404;-75
2023/06/05 02:35:47;;;;;;;4.97;2.90;;;;;;;16.33;67.59;98150.28;4189181;28;20655;-75
2023/06/05 02:37:51;;;;;;;5.50;3.07;;;;;;;16.27;67.67;98156.09;4186563;28;20668;-75
2023/06/05 02:39:55;;;;;;;3.80;3.10;;;;;;;16.22;68.30;98153.06;4179988;28;20634;-75
2023/06/05 02:41:58;;;;;;;5.97;3.10;;;;;;;16.17;69.00;98152.59;4171030;28;20737;-75
2023/06/05 02:44:02;;;;;;;3.73;3.23;;;;;;;16.13;69.66;98153.00;4196520;28;21241;-75
2023/06/05 02:46:07;;;;;;;4.80;2.87;;;;;;;16.12;69.00;98152.19;4191281;28;20636;-75
2023/06/05 02:48:10;;;;;;;4.37;3.40;;;;;;;16.12;68.37;98152.19;4178013;28;20624;-75
2023/06/05 02:50:14;;;;;;;3.50;2.90;;;;;;;16.08;68.86;98161.31;4172792;28;20674;-75
2023/06/05 02:52:22;;;;;;;4.30;2.87;;;;;;;16.09;68.03;98156.88;4171983;28;21056;-75
2023/06/05 02:54:28;;;;;;;4.47;3.20;;;;;;;16.03;69.54;98154.81;4189268;28;20680;-75
2023/06/05 02:56:34;;;;;;;4.20;2.90;;;;;;;16.01;70.53;98151.44;4175644;28;20634;-75
2023/06/05 02:58:39;;;;;;;3.87;3.03;;;;;;;15.94;69.68;98155.63;4197030;28;21093;-75
2023/06/05 03:00:42;;;;;;;7.13;3.20;;;;;;;15.90;69.03;98154.22;4190064;28;20675;-75
2023/06/05 03:02:48;;;;;;;4.13;2.87;;;;;;;15.86;69.18;98152.84;4191862;28;20788;-75
2023/06/05 03:04:56;;;;;;;3.53;3.07;;;;;;;15.81;70.93;98156.84;4193007;28;20665;-75
2023/06/05 03:07:03;;;;;;;5.57;3.47;;;;;;;15.66;69.38;98151.09;4180383;28;20662;-75
2023/06/05 03:09:07;;;;;;;3.40;2.70;;;;;;;15.53;70.17;98148.84;4187357;28;20633;-75
2023/06/05 03:11:11;;;;;;;4.80;3.17;;;;;;;15.47;71.09;98152.03;4179424;28;21211;-75
2023/06/05 03:13:15;;;;;;;4.60;2.97;;;;;;;15.39;70.25;98154.47;4209323;28;21043;-75
2023/06/05 03:15:19;;;;;;;3.20;2.43;;;;;;;15.34;71.88;98154.06;4185318;28;20657;-75
2023/06/05 03:17:24;;;;;;;3.87;2.87;;;;;;;15.36;71.72;98152.13;4171802;28;20627;-75
2023/06/05 03:19:29;;;;;;;3.20;2.77;;;;;;;15.29;72.15;98156.22;4177291;28;20782;-75
2023/06/05 03:21:37;;;;;;;3.83;2.77;;;;;;;15.26;71.64;98159.13;4177816;28;21830;-75
2023/06/05 03:23:40;;;;;;;4.00;3.40;;;;;;;15.24;71.34;98153.19;4190322;28;20628;-75
2023/06/05 03:25:45;;;;;;;4.20;3.10;;;;;;;15.19;72.58;98155.38;4179565;28;20742;-75
2023/06/05 03:27:50;;;;;;;4.07;2.97;;;;;;;15.13;71.09;98147.97;4169668;28;22429;-75
2023/06/05 03:29:53;;;;;;;4.80;3.30;;;;;;;15.09;71.74;98163.19;4195467;28;20630;-75
2023/06/05 03:31:57;;;;;;;4.57;2.73;;;;;;;15.11;72.38;98163.06;4182843;28;20732;-75
2023/06/05 03:34:00;;;;;;;5.37;3.33;;;;;;;15.09;72.69;98162.34;4204061;28;21656;-75
2023/06/05 03:36:06;;;;;;;4.67;3.20;;;;;;;15.08;72.65;98165.94;4186992;28;22684;-75
2023/06/05 03:38:10;;;;;;;3.90;2.83;;;;;;;15.07;72.09;98160.81;4214759;28;22297;-74
2023/06/05 03:40:14;;;;;;;4.20;3.00;;;;;;;15.05;72.34;98167.97;4204008;28;20636;-75
2023/06/05 03:42:18;;;;;;;3.87;3.00;;;;;;;15.02;72.87;98163.84;4201572;28;20623;-75
2023/06/05 03:44:22;;;;;;;4.27;3.23;;;;;;;15.05;72.65;98174.09;4182191;28;20732;-75
2023/06/05 03:46:29;;;;;;;3.83;2.80;;;;;;;15.11;72.56;98174.38;4199405;28;21260;-75
2023/06/05 03:48:33;;;;;;;6.13;3.50;;;;;;;15.13;72.22;98171.63;4187816;28;20680;-74
2023/06/05 03:50:38;;;;;;;3.90;3.17;;;;;;;15.09;72.66;98172.84;4187070;28;21373;-75
2023/06/05 03:52:44;;;;;;;5.00;3.03;;;;;;;15.07;72.46;98176.59;4202033;28;20654;-75
2023/06/05 03:54:53;;;;;;;4.97;3.10;;;;;;;15.07;73.21;98180.03;4199012;28;20698;-75
2023/06/05 03:56:57;;;;;;;5.50;3.20;;;;;;;15.08;72.34;98184.34;4199390;28;20703;-75
2023/06/05 03:59:08;;;;;;;3.20;2.60;;;;;;;15.13;71.58;98184.75;4190089;28;20636;-74
2023/06/05 04:01:14;;;;;;;4.70;3.10;;;;;;;15.15;72.31;98190.72;4188494;28;21234;-75
2023/06/05 04:03:18;;;;;;;3.97;3.00;;;;;;;15.09;71.89;98186.84;4203240;28;20625;-75
2023/06/05 04:05:21;;;;;;;5.00;3.40;;;;;;;15.10;72.68;98185.03;4186412;28;20626;-74
2023/06/05 04:07:25;;;;;;;4.03;3.50;;;;;;;15.05;72.54;98194.25;4183887;28;24321;-75
2023/06/05 04:09:30;;;;;;;6.10;3.20;;;;;;;14.98;72.87;98195.75;4198364;28;20656;-75
2023/06/05 04:11:33;;;;;;;4.13;3.37;;;;;;;14.95;73.11;98194.19;4197654;28;21058;-74
2023/06/05 04:13:37;;;;;;;4.47;3.20;;;;;;;14.94;73.32;98203.03;4186718;28;20650;-74
2023/06/05 04:15:40;;;;;;;5.60;3.77;;;;;;;14.96;73.80;98202.91;4205312;28;20797;-75
2023/06/05 04:17:44;;;;;;;4.67;3.30;;;;;;;14.99;73.70;98200.88;4209430;28;20642;-74
2023/06/05 04:19:48;;;;;;;4.97;3.10;;;;;;;14.98;73.37;98209.69;4208086;28;21097;-74
2023/06/05 04:21:52;;;;;;;7.23;3.90;;;;;;;14.98;74.83;98201.81;4200193;28;20659;-75
2023/06/05 04:23:56;;;;;;;4.33;3.80;;;;;;;14.99;74.00;98200.88;4204089;28;20622;-74
2023/06/05 04:26:02;;;;;;;6.97;4.20;;;;;;;15.01;73.41;98208.63;4184944;28;21069;-75
2023/06/05 04:28:06;;;;;;;4.83;3.33;;;;;;;15.05;73.63;98208.22;4184665;28;20613;-75
2023/06/05 04:30:14;;;;;;;4.87;3.23;;;;;;;15.09;74.81;98207.00;4183912;28;20639;-74
2023/06/05 04:32:18;;;;;;;4.60;3.53;;;;;;;15.14;75.47;98212.72;4189397;28;20637;-74
2023/06/05 04:34:23;;;;;;;5.43;4.03;;;;;;;15.19;74.31;98213.19;4198349;28;20674;-75
2023/06/05 04:36:28;;;;;;;5.60;4.20;;;;;;;15.25;74.83;98207.41;4205284;28;20700;-74
2023/06/05 04:38:31;;;;;;;5.03;3.97;;;;;;;15.30;74.77;98215.72;4207659;28;20621;-74
2023/06/05 04:40:34;;;;;;;6.50;3.90;;;;;;;15.35;74.00;98219.63;4188666;28;20641;-75
2023/06/05 04:42:40;;;;;;;5.37;3.57;;;;;;;15.37;72.67;98215.06;4197281;28;20678;-75
2023/06/05 04:44:43;;;;;;;4.17;3.63;;;;;;;15.41;72.91;98215.63;4197363;28;20648;-75
2023/06/05 04:46:47;;;;;;;7.00;3.70;;;;;;;15.45;73.16;98220.50;4195611;28;21021;-75
2023/06/05 04:48:52;;;;;;;5.03;3.90;;;;;;;15.52;74.24;98220.84;4184044;28;21152;-75
2023/06/05 04:50:57;;;;;;;5.03;3.80;;;;;;;15.56;73.77;98216.00;4197178;28;20627;-75
2023/06/05 04:53:01;;;;;;;6.13;4.03;;;;;;;15.62;74.50;98222.50;4200708;28;20639;-74
2023/06/05 04:55:05;;;;;;;4.10;3.70;;;;;;;15.67;72.91;98221.16;4185156;28;20727;-75
2023/06/05 04:57:10;;;;;;;4.10;3.43;;;;;;;15.72;73.67;98213.69;4197667;28;21303;-74
2023/06/05 04:59:15;;;;;;;5.30;4.07;;;;;;;15.77;73.18;98221.19;4201124;28;21054;-75
2023/06/05 05:01:19;;;;;;;5.93;4.00;;;;;;;15.81;73.59;98226.03;4194877;28;20688;-75
2023/06/05 05:03:23;;;;;;;5.00;4.03;;;;;;;15.88;72.23;98226.38;4188616;28;20708;-74
2023/06/05 05:05:26;;;;;;;4.83;4.10;;;;;;;15.93;73.02;98221.53;4199057;28;20625;-75
2023/06/05 05:07:30;;;;;;;4.97;4.00;;;;;;;15.97;73.40;98225.56;4183174;28;20630;-75
2023/06/05 05:09:35;;;;;;;5.87;3.70;;;;;;;16.03;72.29;98223.22;4195439;28;20703;-75
2023/06/05 05:11:41;;;;;;;4.63;3.73;;;;;;;16.11;71.09;98226.00;4202549;28;20727;-75
2023/06/05 05:13:44;;;;;;;4.60;3.80;;;;;;;16.17;73.34;98221.00;4185728;28;21063;-75
2023/06/05 05:15:52;;;;;;;4.80;4.03;;;;;;;16.23;73.15;98232.84;4187088;28;20657;-76
2023/06/05 05:17:56;;;;;;;6.50;4.10;;;;;;;16.28;72.90;98228.84;4179126;28;21747;-74
2023/06/05 05:20:01;;;;;;;4.97;3.97;;;;;;;16.33;71.54;98231.06;4197763;28;20642;-74
2023/06/05 05:22:05;;;;;;;5.23;4.30;;;;;;;16.35;71.49;98226.50;4197445;28;20629;-75
2023/06/05 05:24:09;;;;;;;4.87;4.07;;;;;;;16.41;71.78;98233.84;4188532;28;20618;-75
2023/06/05 05:26:15;;;;;;;5.50;3.83;;;;;;;16.45;72.83;98235.22;4187310;28;20726;-75
2023/06/05 05:28:18;;;;;;;5.90;4.20;;;;;;;16.47;71.93;98235.94;4200450;28;21096;-75
2023/06/05 05:30:22;;;;;;;4.63;3.70;;;;;;;16.54;70.80;98236.06;4201939;28;20672;-75
2023/06/05 05:32:27;;;;;;;4.90;4.13;;;;;;;16.68;73.41;98243.56;4189509;28;20626;-75
2023/06/05 05:34:30;;;;;;;4.73;3.97;;;;;;;16.86;71.61;98247.16;4183480;28;20665;-75
2023/06/05 05:36:36;;;;;;;4.40;4.00;;;;;;;17.06;72.40;98249.66;4183987;28;20750;-75
2023/06/05 05:38:39;;;;;;;8.70;4.07;;;;;;;17.32;70.53;98255.16;4200337;28;21096;-74
2023/06/05 05:40:42;;;;;;;4.90;4.50;;;;;;;17.62;69.70;98263.69;4195990;28;21117;-75
2023/06/05 05:42:46;;;;;;;5.03;3.83;;;;;;;17.92;69.83;98251.94;4180417;28;20632;-75
2023/06/05 05:44:49;;;;;;;6.63;3.97;;;;;;;18.24;68.89;98256.81;4193961;28;20674;-74
2023/06/05 05:46:52;;;;;;;5.87;4.20;;;;;;;18.60;68.27;98267.28;4197793;28;21026;-74
2023/06/05 05:48:57;;;;;;;4.80;3.80;;;;;;;18.94;67.61;98269.94;4180893;28;20660;-74
2023/06/05 05:51:00;;;;;;;5.33;3.97;;;;;;;19.21;65.74;98269.84;4194315;28;20688;-74
2023/06/05 05:53:03;;;;;;;4.77;4.13;;;;;;;19.53;66.99;98272.72;4178396;28;20634;-74
2023/06/05 05:55:08;;;;;;;7.23;3.80;;;;;;;19.87;66.25;98271.81;4204504;28;21044;-74
2023/06/05 05:57:11;;;;;;;6.40;4.07;;;;;;;20.18;63.97;98278.28;4199151;28;21107;-74
2023/06/05 05:59:14;;;;;;;5.57;4.13;;;;;;;20.46;64.56;98277.84;4184150;28;20679;-74
2023/06/05 06:01:17;;;;;;;4.40;3.83;;;;;;;20.75;63.77;98286.25;4198054;28;20640;-74
2023/06/05 06:03:20;;;;;;;4.57;3.70;;;;;;;21.03;63.82;98283.16;4196496;28;20715;-74
2023/06/05 06:05:29;;;;;;;4.90;3.87;;;;;;;21.28;63.65;98289.13;4202610;28;20630;-74
2023/06/05 06:07:32;;;;;;;5.30;4.17;;;;;;;21.50;61.77;98287.66;4179918;28;20641;-74
2023/06/05 06:09:36;;;;;;;7.40;4.23;;;;;;;21.71;61.38;98282.66;4197139;28;20643;-74
2023/06/05 06:11:39;;;;;;;3.90;3.00;;;;;;;21.92;62.13;98289.06;4191001;28;20718;-74
2023/06/05 06:13:43;;;;;;;5.10;3.63;;;;;;;22.12;60.25;98279.75;4196511;28;20633;-74
2023/06/05 06:15:46;;;;;;;4.47;3.70;;;;;;;22.34;59.66;98282.47;4200901;28;20630;-74
2023/06/05 06:17:49;;;;;;;3.77;2.97;;;;;;;22.64;58.94;98285.16;4210521;28;21317;-74
2023/06/05 06:19:53;;;;;;;4.93;2.90;;;;;;;22.92;56.28;98289.00;4198498;28;21185;-74
2023/06/05 06:21:57;;;;;;;3.63;2.70;;;;;;;23.20;55.40;98291.00;4192510;28;20659;-74
2023/06/05 06:24:01;;;;;;;4.13;3.17;;;;;;;23.43;55.38;98289.16;4196781;28;20736;-74
2023/06/05 06:26:06;;;;;;;4.37;3.77;;;;;;;23.61;54.17;98290.47;4199937;28;21015;-74
2023/06/05 06:28:09;;;;;;;3.73;3.20;;;;;;;23.75;54.01;98295.88;4187028;28;20654;-74
2023/06/05 06:30:13;;;;;;;4.90;3.03;;;;;;;23.88;52.94;98289.91;4196598;28;20632;-74
2023/06/05 06:32:17;;;;;;;6.07;3.13;;;;;;;23.97;52.79;98294.16;4187730;28;21027;-74
2023/06/05 06:34:20;;;;;;;3.77;3.17;;;;;;;24.18;54.54;98285.22;4197681;28;20751;-74
2023/06/05 06:36:23;;;;;;;3.90;3.27;;;;;;;24.42;54.19;98290.31;4182853;28;21068;-74
2023/06/05 06:38:30;;;;;;;4.63;2.90;;;;;;;24.63;54.31;98286.84;4175853;28;20729;-74
2023/06/05 06:40:33;;;;;;;3.47;3.10;;;;;;;24.85;53.11;98297.41;4198415;28;20963;-74
2023/06/05 06:42:37;;;;;;;3.87;2.80;;;;;;;25.02;52.49;98296.16;4199630;28;20630;-74
2023/06/05 06:44:55;;;;;;;5.03;2.90;;;;;;;25.16;52.24;98302.28;4206178;28;20784;-74
2023/06/05 06:46:59;;;;;;;3.30;2.77;;;;;;;25.35;53.00;98304.34;4197274;28;20638;-74
2023/06/05 06:49:03;;;;;;;3.97;3.00;;;;;;;25.51;54.05;98305.91;4193285;28;21031;-74
2023/06/05 06:51:06;;;;;;;3.63;2.70;;;;;;;25.61;52.65;98301.91;4193695;28;20645;-74
2023/06/05 06:53:10;;;;;;;4.77;3.53;;;;;;;25.75;52.23;98303.69;4191429;28;20627;-74
2023/06/05 06:55:14;;;;;;;3.70;3.00;;;;;;;25.96;53.54;98304.47;4183705;28;20746;-74
2023/06/05 06:57:17;;;;;;;5.30;3.53;;;;;;;26.13;53.92;98298.63;4198081;28;20651;-74
2023/06/05 06:59:21;;;;;;;4.27;3.10;;;;;;;26.31;51.46;98301.66;4202928;28;20646;-74
2023/06/05 07:01:24;;;;;;;3.57;2.73;;;;;;;26.48;50.89;98299.50;4206054;28;20627;-74
2023/06/05 07:03:28;;;;;;;3.37;2.80;;;;;;;26.59;51.11;98300.53;4198328;28;20693;-74
2023/06/05 07:05:32;;;;;;;3.67;3.13;;;;;;;26.59;50.32;98294.38;4191012;28;20774;-74
2023/06/05 07:07:35;;;;;;;3.97;3.30;;;;;;;26.72;51.98;98286.41;4204108;28;20625;-74
2023/06/05 07:09:38;;;;;;;3.57;3.10;;;;;;;26.91;52.11;98291.84;4201323;28;20667;-74
2023/06/05 07:11:43;;;;;;;4.43;3.30;;;;;;;26.64;49.55;98282.06;4198029;28;21092;-75
2023/06/05 07:13:46;;;;;;;3.50;3.20;;;;;;;26.56;50.69;98279.53;4199179;28;21302;-74
2023/06/05 07:15:50;;;;;;;4.10;3.20;;;;;;;26.55;50.76;98282.41;4198762;28;21093;-74
2023/06/05 07:17:54;;;;;;;3.67;3.30;;;;;;;26.45;50.54;98281.16;4198357;28;20746;-74
2023/06/05 07:19:57;;;;;;;4.60;3.60;;;;;;;26.41;51.19;98286.06;4203227;28;20628;-74
2023/06/05 07:22:04;;;;;;;4.00;3.47;;;;;;;26.43;52.98;98285.84;4207038;28;20666;-74
2023/06/05 07:24:07;;;;;;;4.97;3.43;;;;;;;26.59;52.48;98286.34;4204518;28;20627;-74
2023/06/05 07:26:12;;;;;;;4.23;3.77;;;;;;;26.67;51.07;98280.81;4199949;28;20819;-74
2023/06/05 07:28:17;;;;;;;4.40;3.43;;;;;;;26.64;52.36;98275.84;4187837;28;20663;-74
2023/06/05 07:30:20;;;;;;;4.23;3.50;;;;;;;26.95;53.80;98289.59;4191032;28;20653;-74
2023/06/05 07:32:23;;;;;;;4.20;3.80;;;;;;;27.20;50.76;98289.66;4199673;28;21270;-74
2023/06/05 07:34:27;;;;;;;4.80;4.10;;;;;;;27.32;50.85;98284.50;4201837;28;21055;-74
2023/06/05 07:36:30;;;;;;;3.63;3.20;;;;;;;26.88;50.05;98280.69;4201682;28;20632;-74
2023/06/05 07:38:34;;;;;;;3.93;3.40;;;;;;;26.49;50.71;98277.03;4197420;28;20699;-74
2023/06/05 07:40:37;;;;;;;3.40;3.10;;;;;;;26.22;51.76;98272.53;4212792;28;20690;-74
2023/06/05 07:42:40;;;;;;;3.63;3.33;;;;;;;26.19;51.47;98267.56;4198635;28;20636;-74
2023/06/05 07:44:45;;;;;;;3.97;3.47;;;;;;;25.98;50.73;98258.81;4202117;28;20641;-73
2023/06/05 07:46:49;;;;;;;4.73;3.30;;;;;;;25.84;51.97;98255.22;4198954;28;20640;-73
2023/06/05 07:48:52;;;;;;;4.50;3.30;;;;;;;25.79;53.36;98263.00;4202055;28;20750;-74
2023/06/05 07:50:55;;;;;;;4.30;3.40;;;;;;;25.66;53.01;98256.72;4206593;28;20632;-73
2023/06/05 07:52:58;;;;;;;4.83;3.47;;;;;;;25.66;53.79;98262.94;4204262;28;20622;-73
2023/06/05 07:55:02;;;;;;;5.03;3.30;;;;;;;25.64;53.70;98258.78;4182869;28;21128;-74
2023/06/05 07:57:07;;;;;;;5.07;3.70;;;;;;;25.71;54.18;98265.03;4198474;28;20721;-75
2023/06/05 07:59:14;;;;;;;5.07;3.70;;;;;;;25.61;53.43;98262.63;4200728;28;20643;-74
2023/06/05 08:01:20;;;;;;;4.90;4.00;;;;;;;25.62;53.55;98260.81;4192717;28;20635;-74
2023/06/05 08:03:24;;;;;;;5.20;3.40;;;;;;;25.26;54.01;98254.72;4195918;28;20725;-74
2023/06/05 08:05:28;;;;;;;7.53;4.03;;;;;;;25.17;55.39;98252.41;4196116;28;20624;-74
2023/06/05 08:07:31;;;;;;;3.83;3.43;;;;;;;25.18;54.25;98262.03;4195459;28;20642;-74
2023/06/05 08:09:36;;;;;;;5.50;3.70;;;;;;;25.18;54.52;98252.19;4200532;28;20711;-74
2023/06/05 08:11:41;;;;;;;4.97;3.70;;;;;;;24.97;54.66;98247.81;4183655;28;20643;-74
2023/06/05 08:13:45;;;;;;;4.43;3.87;;;;;;;24.94;55.48;98245.53;4202294;28;20650;-74
2023/06/05 08:15:48;;;;;;;5.43;3.97;;;;;;;25.45;55.74;98254.06;4200252;28;20631;-74
2023/06/05 08:17:52;;;;;;;6.93;4.23;;;;;;;25.91;56.56;98249.94;4198011;28;21235;-74
2023/06/05 08:19:56;;;;;;;4.60;4.10;;;;;;;26.27;55.30;98252.22;4198205;28;21178;-75
2023/06/05 08:21:59;;;;;;;7.43;4.70;;;;;;;26.54;54.83;98254.00;4195243;28;21552;-74
2023/06/05 08:24:02;;;;;;;4.93;4.23;;;;;;;26.63;55.19;98255.47;4183842;28;20638;-74
2023/06/05 08:26:10;;;;;;;5.00;4.30;;;;;;;26.70;55.72;98248.28;4180634;28;21191;-75
2023/06/05 08:28:13;;;;;;;5.50;5.00;;;;;;;26.66;56.06;98252.41;4186171;28;20684;-75
2023/06/05 08:30:17;;;;;;;4.90;4.10;;;;;;;26.96;55.26;98254.59;4195013;28;21130;-75
2023/06/05 08:32:21;;;;;;;5.77;5.00;;;;;;;27.31;55.37;98250.72;4197772;28;20628;-74
2023/06/05 08:34:25;;;;;;;5.37;4.50;;;;;;;27.49;55.41;98259.81;4192160;28;20699;-74
2023/06/05 08:36:32;;;;;;;4.70;4.20;;;;;;;27.35;54.39;98254.63;4193541;28;20633;-74
2023/06/05 08:38:35;;;;;;;5.33;4.80;;;;;;;27.10;54.15;98256.25;4198769;28;21125;-74
2023/06/05 08:40:48;;;;;;;6.60;5.10;;;;;;;27.00;55.67;98239.72;4198030;28;20643;-74
2023/06/05 08:42:51;;;;;;;4.93;4.40;;;;;;;27.23;54.75;98250.94;4198119;28;21231;-74
2023/06/05 08:44:54;;;;;;;5.60;4.80;;;;;;;27.30;53.73;98243.69;4200558;28;21227;-74
2023/06/05 08:47:08;;;;;;;6.60;5.10;;;;;;;26.79;53.96;98241.72;4197519;28;21056;-74
2023/06/05 08:49:12;;;;;;;5.00;4.50;;;;;;;26.47;54.13;98236.25;4200785;28;20634;-74
2023/06/05 08:51:17;;;;;;;6.80;4.83;;;;;;;26.53;55.65;98235.47;4200910;28;20663;-74
2023/06/05 08:53:22;;;;;;;6.97;4.30;;;;;;;26.58;55.15;98240.03;4197028;28;20665;-74
2023/06/05 08:55:25;;;;;;;9.13;4.60;;;;;;;26.61;55.35;98233.41;4195772;28;21290;-74
2023/06/05 08:57:29;;;;;;;5.20;4.63;;;;;;;26.48;54.46;98235.25;4199547;28;20671;-74
2023/06/05 08:59:32;;;;;;;6.80;5.10;;;;;;;26.31;55.38;98233.91;4187445;28;20661;-74
2023/06/05 09:01:37;;;;;;;6.30;4.50;;;;;;;26.13;55.00;98230.91;4189347;28;20630;-74
2023/06/05 09:03:40;;;;;;;5.20;4.20;;;;;;;26.03;54.53;98232.31;4199212;28;20728;-75
2023/06/05 09:05:44;;;;;;;5.00;4.50;;;;;;;26.10;55.79;98226.81;4202220;28;20672;-74
2023/06/05 09:07:48;;;;;;;5.53;4.50;;;;;;;26.32;55.43;98227.56;4202400;28;20636;-75
2023/06/05 09:09:51;;;;;;;5.47;4.17;;;;;;;26.56;53.48;98241.22;4199251;28;20639;-74
2023/06/05 09:12:05;;;;;;;4.70;4.20;;;;;;;26.80;53.93;98235.34;4201771;28;20674;-74
2023/06/05 09:14:08;;;;;;;7.93;4.30;;;;;;;27.03;54.84;98235.84;4200295;28;20658;-74
2023/06/05 09:16:11;;;;;;;6.33;4.00;;;;;;;27.22;54.11;98227.81;4202567;28;20656;-74
2023/06/05 09:18:15;;;;;;;4.10;3.70;;;;;;;27.27;53.64;98231.56;4199813;28;20627;-74
2023/06/05 09:20:24;;;;;;;4.30;3.90;;;;;;;27.22;52.96;98228.66;4196502;28;20652;-75
2023/06/05 09:22:35;;;;;;;4.77;4.13;;;;;;;27.26;52.26;98224.53;4195833;28;21340;-74
2023/06/05 09:24:41;;;;;;;5.10;4.10;;;;;;;27.29;52.36;98228.63;4200165;28;20649;-75
2023/06/05 09:26:49;;;;;;;4.40;3.67;;;;;;;27.17;48.23;98219.59;4199364;28;21253;-74
2023/06/05 09:29:21;;;;;;;3.60;3.10;;;;;;;26.51;47.88;98200.88;4200935;28;20631;-74
2023/06/05 09:31:24;;;;;;;3.63;3.10;;;;;;;26.13;49.33;98199.66;4193404;28;20729;-74
2023/06/05 09:33:29;;;;;;;3.80;3.43;;;;;;;26.27;49.43;98201.38;4194578;28;20633;-74
2023/06/05 09:35:33;;;;;;;3.67;3.20;;;;;;;26.50;50.28;98211.78;4203668;28;20623;-74
2023/06/05 09:37:37;;;;;;;4.33;2.83;;;;;;;26.80;48.55;98212.06;4192570;28;20638;-74
2023/06/05 09:39:43;;;;;;;4.50;3.40;;;;;;;26.77;48.65;98217.00;4186925;28;20656;-74
2023/06/05 09:41:48;;;;;;;3.83;3.20;;;;;;;26.91;50.14;98214.16;4199953;28;20634;-74
2023/06/05 09:43:52;;;;;;;4.60;3.10;;;;;;;27.17;48.67;98222.28;4198633;28;21180;-75
2023/06/05 09:45:55;;;;;;;3.33;2.90;;;;;;;27.19;47.59;98221.00;4195157;28;20632;-74